sensor_id;sensor_type;location;lat;lon;timestamp;temperature;humidity
29551;DHT22;16488;52.396;10.696;2023-11-21T00:01:27;8.30;99.90
29551;DHT22;16488;52.396;10.696;2023-11-21T00:03:52;8.30;99.90
29551;DHT22;16488;52.396;10.696;2023-11-21T00:06:20;8.20;99.90
29551;DHT22;16488;52.396;10.696;2023-11-21T00:08:46;8.30;99.90
29551;DHT22;16488;52.396;10.696;2023-11-21T00:11:11;8.30;99.90
29551;DHT22;16488;52.396;10.696;2023-11-21T00:13:37;8.20;99.90
29551;DHT22;16488;52.396;10.696;2023-11-21T00:16:03;8.20;99.90
29551;DHT22;16488;52.396;10.696;2023-11-21T00:18:29;8.20;99.90
29551;DHT22;16488;52.396;10.696;2023-11-21T00:20:55;8.20;99.90
29551;DHT22;16488;52.396;10.696;2023-11-21T00:23:20;8.20;99.90
29551;DHT22;16488;52.396;10.696;2023-11-21T00:25:46;8.20;99.90
29551;DHT22;16488;52.396;10.696;2023-11-21T00:28:11;8.30;99.90
29551;DHT22;16488;52.396;10.696;2023-11-21T00:30:37;8.20;99.90
29551;DHT22;16488;52.396;10.696;2023-11-21T00:33:03;8.30;99.90
29551;DHT22;16488;52.396;10.696;2023-11-21T00:35:29;8.20;99.90
29551;DHT22;16488;52.396;10.696;2023-11-21T00:37:55;8.20;99.90
29551;DHT22;16488;52.396;10.696;2023-11-21T00:40:20;8.20;99.90
29551;DHT22;16488;52.396;10.696;2023-11-21T00:42:46;8.20;99.90
29551;DHT22;16488;52.396;10.696;2023-11-21T00:45:12;8.20;99.90
29551;DHT22;16488;52.396;10.696;2023-11-21T00:47:37;8.20;99.90
29551;DHT22;16488;52.396;10.696;2023-11-21T00:50:04;8.20;99.90
29551;DHT22;16488;52.396;10.696;2023-11-21T00:52:31;8.10;99.90
29551;DHT22;16488;52.396;10.696;2023-11-21T00:54:58;8.10;99.90
29551;DHT22;16488;52.396;10.696;2023-11-21T00:57:25;8.10;99.90
29551;DHT22;16488;52.396;10.696;2023-11-21T00:59:51;8.10;99.90
29551;DHT22;16488;52.396;10.696;2023-11-21T01:02:16;8.10;99.90
29551;DHT22;16488;52.396;10.696;2023-11-21T01:04:42;8.10;99.90
29551;DHT22;16488;52.396;10.696;2023-11-21T01:07:08;8.10;99.90
29551;DHT22;16488;52.396;10.696;2023-11-21T01:09:34;8.10;99.90
29551;DHT22;16488;52.396;10.696;2023-11-21T01:12:00;8.10;99.90
29551;DHT22;16488;52.396;10.696;2023-11-21T01:14:26;8.10;99.90
29551;DHT22;16488;52.396;10.696;2023-11-21T01:16:54;8.10;99.90
29551;DHT22;16488;52.396;10.696;2023-11-21T01:19:20;8.10;99.90
29551;DHT22;16488;52.396;10.696;2023-11-21T01:21:45;8.10;99.90
29551;DHT22;16488;52.396;10.696;2023-11-21T01:24:11;8.10;99.90
29551;DHT22;16488;52.396;10.696;2023-11-21T01:26:37;8.10;99.90
29551;DHT22;16488;52.396;10.696;2023-11-21T01:29:02;8.10;99.90
29551;DHT22;16488;52.396;10.696;2023-11-21T01:31:28;8.00;99.90
29551;DHT22;16488;52.396;10.696;2023-11-21T01:33:55;8.00;99.90
29551;DHT22;16488;52.396;10.696;2023-11-21T01:36:21;8.00;99.90
29551;DHT22;16488;52.396;10.696;2023-11-21T01:38:46;8.00;99.90
29551;DHT22;16488;52.396;10.696;2023-11-21T01:41:13;8.00;99.90
29551;DHT22;16488;52.396;10.696;2023-11-21T01:43:39;8.00;99.90
29551;DHT22;16488;52.396;10.696;2023-11-21T01:46:05;8.10;99.90
29551;DHT22;16488;52.396;10.696;2023-11-21T01:48:31;8.10;99.90
29551;DHT22;16488;52.396;10.696;2023-11-21T01:50:57;8.10;99.90
29551;DHT22;16488;52.396;10.696;2023-11-21T01:53:24;8.10;99.90
29551;DHT22;16488;52.396;10.696;2023-11-21T01:55:49;8.10;99.90
29551;DHT22;16488;52.396;10.696;2023-11-21T01:58:15;8.00;99.90
29551;DHT22;16488;52.396;10.696;2023-11-21T02:00:41;8.10;99.90
29551;DHT22;16488;52.396;10.696;2023-11-21T02:03:07;8.10;99.90
29551;DHT22;16488;52.396;10.696;2023-11-21T02:05:32;8.10;99.90
29551;DHT22;16488;52.396;10.696;2023-11-21T02:07:58;8.10;99.90
29551;DHT22;16488;52.396;10.696;2023-11-21T02:10:23;8.10;99.90
29551;DHT22;16488;52.396;10.696;2023-11-21T02:12:49;8.10;99.90
29551;DHT22;16488;52.396;10.696;2023-11-21T02:15:18;8.10;99.90
29551;DHT22;16488;52.396;10.696;2023-11-21T02:17:47;8.10;99.90
29551;DHT22;16488;52.396;10.696;2023-11-21T02:20:16;8.10;99.90
29551;DHT22;16488;52.396;10.696;2023-11-21T02:22:43;8.10;99.90
29551;DHT22;16488;52.396;10.696;2023-11-21T02:25:09;8.10;99.90
29551;DHT22;16488;52.396;10.696;2023-11-21T02:27:35;8.10;99.90
29551;DHT22;16488;52.396;10.696;2023-11-21T02:30:00;8.00;99.90
29551;DHT22;16488;52.396;10.696;2023-11-21T02:32:26;8.00;99.90
29551;DHT22;16488;52.396;10.696;2023-11-21T02:34:52;8.00;99.90
29551;DHT22;16488;52.396;10.696;2023-11-21T02:37:18;8.10;99.90
29551;DHT22;16488;52.396;10.696;2023-11-21T02:39:44;8.10;99.90
29551;DHT22;16488;52.396;10.696;2023-11-21T02:42:09;8.00;99.90
29551;DHT22;16488;52.396;10.696;2023-11-21T02:44:35;8.10;99.90
29551;DHT22;16488;52.396;10.696;2023-11-21T02:47:00;8.10;99.90
29551;DHT22;16488;52.396;10.696;2023-11-21T02:49:26;8.10;99.90
29551;DHT22;16488;52.396;10.696;2023-11-21T02:51:54;8.10;99.90
29551;DHT22;16488;52.396;10.696;2023-11-21T02:54:20;8.10;99.90
29551;DHT22;16488;52.396;10.696;2023-11-21T02:56:47;8.10;99.90
29551;DHT22;16488;52.396;10.696;2023-11-21T02:59:15;8.20;99.90
29551;DHT22;16488;52.396;10.696;2023-11-21T03:01:41;8.20;99.90
29551;DHT22;16488;52.396;10.696;2023-11-21T03:04:07;8.20;99.90
29551;DHT22;16488;52.396;10.696;2023-11-21T03:06:32;8.20;99.90
29551;DHT22;16488;52.396;10.696;2023-11-21T03:08:59;8.20;99.90
29551;DHT22;16488;52.396;10.696;2023-11-21T03:11:24;8.20;99.90
29551;DHT22;16488;52.396;10.696;2023-11-21T03:13:50;8.10;99.90
29551;DHT22;16488;52.396;10.696;2023-11-21T03:16:16;8.20;99.90
29551;DHT22;16488;52.396;10.696;2023-11-21T03:18:41;8.10;99.90
29551;DHT22;16488;52.396;10.696;2023-11-21T03:21:07;8.10;99.90
29551;DHT22;16488;52.396;10.696;2023-11-21T03:23:36;8.10;99.90
29551;DHT22;16488;52.396;10.696;2023-11-21T03:26:02;8.10;99.90
29551;DHT22;16488;52.396;10.696;2023-11-21T03:28:27;8.10;99.90
29551;DHT22;16488;52.396;10.696;2023-11-21T03:30:53;8.10;99.90
29551;DHT22;16488;52.396;10.696;2023-11-21T03:33:19;8.10;99.90
29551;DHT22;16488;52.396;10.696;2023-11-21T03:35:44;8.10;99.90
29551;DHT22;16488;52.396;10.696;2023-11-21T03:38:10;8.10;99.90
29551;DHT22;16488;52.396;10.696;2023-11-21T03:40:36;8.20;99.90
29551;DHT22;16488;52.396;10.696;2023-11-21T03:43:01;8.20;99.90
29551;DHT22;16488;52.396;10.696;2023-11-21T03:45:27;8.20;99.90
29551;DHT22;16488;52.396;10.696;2023-11-21T03:47:52;8.30;99.90
29551;DHT22;16488;52.396;10.696;2023-11-21T03:50:18;8.20;99.90
29551;DHT22;16488;52.396;10.696;2023-11-21T03:52:43;8.20;99.90
29551;DHT22;16488;52.396;10.696;2023-11-21T03:55:09;8.20;99.90
29551;DHT22;16488;52.396;10.696;2023-11-21T03:57:35;8.20;99.90
29551;DHT22;16488;52.396;10.696;2023-11-21T04:00:01;8.20;99.90
29551;DHT22;16488;52.396;10.696;2023-11-21T04:02:29;8.20;99.90
29551;DHT22;16488;52.396;10.696;2023-11-21T04:04:57;8.20;99.90
29551;DHT22;16488;52.396;10.696;2023-11-21T04:07:22;8.20;99.90
29551;DHT22;16488;52.396;10.696;2023-11-21T04:09:48;8.20;99.90
29551;DHT22;16488;52.396;10.696;2023-11-21T04:12:13;8.20;99.90
29551;DHT22;16488;52.396;10.696;2023-11-21T04:14:39;8.20;99.90
29551;DHT22;16488;52.396;10.696;2023-11-21T04:17:05;8.20;99.90
29551;DHT22;16488;52.396;10.696;2023-11-21T04:19:30;8.20;99.90
29551;DHT22;16488;52.396;10.696;2023-11-21T04:21:56;8.20;99.90
29551;DHT22;16488;52.396;10.696;2023-11-21T04:24:21;8.20;99.90
29551;DHT22;16488;52.396;10.696;2023-11-21T04:26:47;8.20;99.90
29551;DHT22;16488;52.396;10.696;2023-11-21T04:29:12;8.20;99.90
29551;DHT22;16488;52.396;10.696;2023-11-21T04:31:38;8.10;99.90
29551;DHT22;16488;52.396;10.696;2023-11-21T04:34:03;8.00;99.90
29551;DHT22;16488;52.396;10.696;2023-11-21T04:36:31;8.10;99.90
29551;DHT22;16488;52.396;10.696;2023-11-21T04:38:57;8.10;99.90
29551;DHT22;16488;52.396;10.696;2023-11-21T04:41:22;8.10;99.90
29551;DHT22;16488;52.396;10.696;2023-11-21T04:43:48;8.10;99.90
29551;DHT22;16488;52.396;10.696;2023-11-21T04:46:14;8.20;99.90
29551;DHT22;16488;52.396;10.696;2023-11-21T04:48:40;8.10;99.90
29551;DHT22;16488;52.396;10.696;2023-11-21T04:51:05;8.10;99.90
29551;DHT22;16488;52.396;10.696;2023-11-21T04:53:31;8.10;99.90
29551;DHT22;16488;52.396;10.696;2023-11-21T04:55:57;8.10;99.90
29551;DHT22;16488;52.396;10.696;2023-11-21T04:58:23;8.10;99.90
29551;DHT22;16488;52.396;10.696;2023-11-21T05:00:48;8.10;99.90
29551;DHT22;16488;52.396;10.696;2023-11-21T05:03:15;8.10;99.90
29551;DHT22;16488;52.396;10.696;2023-11-21T05:05:40;8.10;99.90
29551;DHT22;16488;52.396;10.696;2023-11-21T05:08:06;8.00;99.90
29551;DHT22;16488;52.396;10.696;2023-11-21T05:10:31;7.90;99.90
29551;DHT22;16488;52.396;10.696;2023-11-21T05:12:57;7.90;99.90
29551;DHT22;16488;52.396;10.696;2023-11-21T05:15:23;7.80;99.90
29551;DHT22;16488;52.396;10.696;2023-11-21T05:17:49;7.80;99.90
29551;DHT22;16488;52.396;10.696;2023-11-21T05:20:17;7.80;99.90
29551;DHT22;16488;52.396;10.696;2023-11-21T05:22:46;7.70;99.90
29551;DHT22;16488;52.396;10.696;2023-11-21T05:25:12;7.70;99.90
29551;DHT22;16488;52.396;10.696;2023-11-21T05:27:37;7.70;99.90
29551;DHT22;16488;52.396;10.696;2023-11-21T05:30:03;7.70;99.90
29551;DHT22;16488;52.396;10.696;2023-11-21T05:32:37;7.70;99.90
29551;DHT22;16488;52.396;10.696;2023-11-21T05:35:02;7.70;99.90
29551;DHT22;16488;52.396;10.696;2023-11-21T05:37:28;7.70;99.90
29551;DHT22;16488;52.396;10.696;2023-11-21T05:39:54;7.70;99.90
29551;DHT22;16488;52.396;10.696;2023-11-21T05:42:22;7.70;99.90
29551;DHT22;16488;52.396;10.696;2023-11-21T05:44:48;7.70;99.90
29551;DHT22;16488;52.396;10.696;2023-11-21T05:47:14;7.60;99.90
29551;DHT22;16488;52.396;10.696;2023-11-21T05:49:40;7.50;99.90
29551;DHT22;16488;52.396;10.696;2023-11-21T05:52:05;7.40;99.90
29551;DHT22;16488;52.396;10.696;2023-11-21T05:54:31;7.30;99.90
29551;DHT22;16488;52.396;10.696;2023-11-21T05:56:56;7.30;99.90
29551;DHT22;16488;52.396;10.696;2023-11-21T05:59:23;7.20;99.90
29551;DHT22;16488;52.396;10.696;2023-11-21T06:01:48;7.20;99.90
29551;DHT22;16488;52.396;10.696;2023-11-21T06:04:14;7.20;99.90
29551;DHT22;16488;52.396;10.696;2023-11-21T06:06:39;7.10;99.90
29551;DHT22;16488;52.396;10.696;2023-11-21T06:09:05;7.10;99.90
29551;DHT22;16488;52.396;10.696;2023-11-21T06:11:34;7.10;99.90
29551;DHT22;16488;52.396;10.696;2023-11-21T06:14:00;7.10;99.90
29551;DHT22;16488;52.396;10.696;2023-11-21T06:16:25;7.10;99.90
29551;DHT22;16488;52.396;10.696;2023-11-21T06:18:51;7.00;99.90
29551;DHT22;16488;52.396;10.696;2023-11-21T06:21:16;7.00;99.90
29551;DHT22;16488;52.396;10.696;2023-11-21T06:23:43;7.00;99.90
29551;DHT22;16488;52.396;10.696;2023-11-21T06:26:08;7.00;99.90
29551;DHT22;16488;52.396;10.696;2023-11-21T06:28:34;7.00;99.90
29551;DHT22;16488;52.396;10.696;2023-11-21T06:31:01;7.00;99.90
29551;DHT22;16488;52.396;10.696;2023-11-21T06:33:31;7.00;99.90
29551;DHT22;16488;52.396;10.696;2023-11-21T06:35:56;7.00;99.90
29551;DHT22;16488;52.396;10.696;2023-11-21T06:38:22;7.00;99.90
29551;DHT22;16488;52.396;10.696;2023-11-21T06:40:47;7.00;99.90
29551;DHT22;16488;52.396;10.696;2023-11-21T06:43:13;7.00;99.90
29551;DHT22;16488;52.396;10.696;2023-11-21T06:45:39;6.90;99.90
29551;DHT22;16488;52.396;10.696;2023-11-21T06:48:05;6.90;99.90
29551;DHT22;16488;52.396;10.696;2023-11-21T06:50:30;6.90;99.90
29551;DHT22;16488;52.396;10.696;2023-11-21T06:52:56;6.90;99.90
29551;DHT22;16488;52.396;10.696;2023-11-21T06:55:21;6.90;99.90
29551;DHT22;16488;52.396;10.696;2023-11-21T06:57:47;6.80;99.90
29551;DHT22;16488;52.396;10.696;2023-11-21T07:00:14;6.80;99.90
29551;DHT22;16488;52.396;10.696;2023-11-21T07:02:40;6.80;99.90
29551;DHT22;16488;52.396;10.696;2023-11-21T07:05:06;6.80;99.90
29551;DHT22;16488;52.396;10.696;2023-11-21T07:07:32;6.80;99.90
29551;DHT22;16488;52.396;10.696;2023-11-21T07:09:59;6.80;99.90
29551;DHT22;16488;52.396;10.696;2023-11-21T07:12:29;6.80;99.90
29551;DHT22;16488;52.396;10.696;2023-11-21T07:14:55;6.90;99.90
29551;DHT22;16488;52.396;10.696;2023-11-21T07:17:20;6.90;99.90
29551;DHT22;16488;52.396;10.696;2023-11-21T07:19:48;6.90;99.90
29551;DHT22;16488;52.396;10.696;2023-11-21T07:22:14;6.90;99.90
29551;DHT22;16488;52.396;10.696;2023-11-21T07:24:40;6.80;99.90
29551;DHT22;16488;52.396;10.696;2023-11-21T07:27:06;6.80;99.90
29551;DHT22;16488;52.396;10.696;2023-11-21T07:29:31;6.80;99.90
29551;DHT22;16488;52.396;10.696;2023-11-21T07:31:58;6.70;99.90
29551;DHT22;16488;52.396;10.696;2023-11-21T07:34:23;6.70;99.90
29551;DHT22;16488;52.396;10.696;2023-11-21T07:36:49;6.70;99.90
29551;DHT22;16488;52.396;10.696;2023-11-21T07:39:14;6.80;99.90
29551;DHT22;16488;52.396;10.696;2023-11-21T07:41:41;6.70;99.90
29551;DHT22;16488;52.396;10.696;2023-11-21T07:44:10;6.80;99.90
29551;DHT22;16488;52.396;10.696;2023-11-21T07:46:36;6.80;99.90
29551;DHT22;16488;52.396;10.696;2023-11-21T07:49:01;6.70;99.90
29551;DHT22;16488;52.396;10.696;2023-11-21T07:51:27;6.70;99.90
29551;DHT22;16488;52.396;10.696;2023-11-21T07:53:52;6.70;99.90
29551;DHT22;16488;52.396;10.696;2023-11-21T07:56:18;6.70;99.90
29551;DHT22;16488;52.396;10.696;2023-11-21T07:58:44;6.70;99.90
29551;DHT22;16488;52.396;10.696;2023-11-21T08:01:10;6.60;99.90
29551;DHT22;16488;52.396;10.696;2023-11-21T08:03:35;6.70;99.90
29551;DHT22;16488;52.396;10.696;2023-11-21T08:06:01;6.70;99.90
29551;DHT22;16488;52.396;10.696;2023-11-21T08:08:28;6.70;99.90
29551;DHT22;16488;52.396;10.696;2023-11-21T08:10:54;6.70;99.90
29551;DHT22;16488;52.396;10.696;2023-11-21T08:13:23;6.80;99.90
29551;DHT22;16488;52.396;10.696;2023-11-21T08:15:49;6.80;99.90
29551;DHT22;16488;52.396;10.696;2023-11-21T08:18:14;6.80;99.90
29551;DHT22;16488;52.396;10.696;2023-11-21T08:20:40;6.80;99.90
29551;DHT22;16488;52.396;10.696;2023-11-21T08:23:06;6.90;99.90
29551;DHT22;16488;52.396;10.696;2023-11-21T08:25:34;7.00;99.90
29551;DHT22;16488;52.396;10.696;2023-11-21T08:28:00;7.00;99.90
29551;DHT22;16488;52.396;10.696;2023-11-21T08:30:25;7.00;99.90
29551;DHT22;16488;52.396;10.696;2023-11-21T08:32:54;7.10;99.90
29551;DHT22;16488;52.396;10.696;2023-11-21T08:35:23;7.10;99.90
29551;DHT22;16488;52.396;10.696;2023-11-21T08:37:52;7.10;99.90
29551;DHT22;16488;52.396;10.696;2023-11-21T08:40:21;7.00;99.90
29551;DHT22;16488;52.396;10.696;2023-11-21T08:42:47;7.00;99.90
29551;DHT22;16488;52.396;10.696;2023-11-21T08:45:13;7.00;99.90
29551;DHT22;16488;52.396;10.696;2023-11-21T08:47:39;7.00;99.90
29551;DHT22;16488;52.396;10.696;2023-11-21T08:50:05;7.00;99.90
29551;DHT22;16488;52.396;10.696;2023-11-21T08:52:33;7.00;99.90
29551;DHT22;16488;52.396;10.696;2023-11-21T08:54:58;7.00;99.90
29551;DHT22;16488;52.396;10.696;2023-11-21T08:57:28;7.00;99.90
29551;DHT22;16488;52.396;10.696;2023-11-21T08:59:53;7.00;99.90
29551;DHT22;16488;52.396;10.696;2023-11-21T09:02:21;7.00;99.90
29551;DHT22;16488;52.396;10.696;2023-11-21T09:04:48;7.00;99.90
29551;DHT22;16488;52.396;10.696;2023-11-21T09:07:13;7.10;99.90
29551;DHT22;16488;52.396;10.696;2023-11-21T09:09:38;7.10;99.90
29551;DHT22;16488;52.396;10.696;2023-11-21T09:12:04;7.10;99.90
29551;DHT22;16488;52.396;10.696;2023-11-21T09:14:30;7.10;99.90
29551;DHT22;16488;52.396;10.696;2023-11-21T09:16:55;7.20;99.90
29551;DHT22;16488;52.396;10.696;2023-11-21T09:19:21;7.20;99.90
29551;DHT22;16488;52.396;10.696;2023-11-21T09:21:47;7.20;99.90
29551;DHT22;16488;52.396;10.696;2023-11-21T09:24:12;7.30;99.90
29551;DHT22;16488;52.396;10.696;2023-11-21T09:26:38;7.30;99.90
29551;DHT22;16488;52.396;10.696;2023-11-21T09:29:04;7.30;99.90
29551;DHT22;16488;52.396;10.696;2023-11-21T09:31:29;7.40;99.90
29551;DHT22;16488;52.396;10.696;2023-11-21T09:33:56;7.40;99.90
29551;DHT22;16488;52.396;10.696;2023-11-21T09:36:22;7.50;99.90
29551;DHT22;16488;52.396;10.696;2023-11-21T09:38:52;7.50;99.90
29551;DHT22;16488;52.396;10.696;2023-11-21T09:41:28;7.50;99.90
29551;DHT22;16488;52.396;10.696;2023-11-21T09:44:00;7.50;99.90
29551;DHT22;16488;52.396;10.696;2023-11-21T09:46:27;7.50;99.90
29551;DHT22;16488;52.396;10.696;2023-11-21T09:48:53;7.50;99.90
29551;DHT22;16488;52.396;10.696;2023-11-21T09:51:21;7.40;99.90
29551;DHT22;16488;52.396;10.696;2023-11-21T09:53:49;7.20;99.90
29551;DHT22;16488;52.396;10.696;2023-11-21T09:56:15;7.20;99.90
29551;DHT22;16488;52.396;10.696;2023-11-21T09:58:44;7.20;99.90
29551;DHT22;16488;52.396;10.696;2023-11-21T10:01:10;7.20;99.90
29551;DHT22;16488;52.396;10.696;2023-11-21T10:03:36;7.20;99.90
29551;DHT22;16488;52.396;10.696;2023-11-21T10:06:04;7.10;99.90
29551;DHT22;16488;52.396;10.696;2023-11-21T10:08:30;7.20;99.90
29551;DHT22;16488;52.396;10.696;2023-11-21T10:10:57;7.20;99.90
29551;DHT22;16488;52.396;10.696;2023-11-21T10:13:24;7.30;99.90
29551;DHT22;16488;52.396;10.696;2023-11-21T10:15:52;7.30;99.90
29551;DHT22;16488;52.396;10.696;2023-11-21T10:18:18;7.30;99.90
29551;DHT22;16488;52.396;10.696;2023-11-21T10:20:44;7.30;99.90
29551;DHT22;16488;52.396;10.696;2023-11-21T10:23:18;7.30;99.90
29551;DHT22;16488;52.396;10.696;2023-11-21T10:25:44;7.20;99.90
29551;DHT22;16488;52.396;10.696;2023-11-21T10:28:09;7.20;99.90
29551;DHT22;16488;52.396;10.696;2023-11-21T10:30:36;7.20;99.90
29551;DHT22;16488;52.396;10.696;2023-11-21T10:33:06;7.20;99.90
29551;DHT22;16488;52.396;10.696;2023-11-21T10:36:05;7.30;99.90
29551;DHT22;16488;52.396;10.696;2023-11-21T10:38:24;7.30;99.90
29551;DHT22;16488;52.396;10.696;2023-11-21T10:40:52;7.50;99.90
29551;DHT22;16488;52.396;10.696;2023-11-21T10:43:20;7.50;99.90
29551;DHT22;16488;52.396;10.696;2023-11-21T10:45:49;7.50;99.90
29551;DHT22;16488;52.396;10.696;2023-11-21T10:48:15;7.40;99.90
29551;DHT22;16488;52.396;10.696;2023-11-21T10:50:41;7.40;99.90
29551;DHT22;16488;52.396;10.696;2023-11-21T10:53:06;7.40;99.90
29551;DHT22;16488;52.396;10.696;2023-11-21T10:55:32;7.40;99.90
29551;DHT22;16488;52.396;10.696;2023-11-21T10:58:02;7.40;99.90
29551;DHT22;16488;52.396;10.696;2023-11-21T11:00:30;7.40;99.90
29551;DHT22;16488;52.396;10.696;2023-11-21T11:02:56;7.40;99.90
29551;DHT22;16488;52.396;10.696;2023-11-21T11:05:23;7.30;99.90
29551;DHT22;16488;52.396;10.696;2023-11-21T11:07:51;7.40;99.90
29551;DHT22;16488;52.396;10.696;2023-11-21T11:10:25;7.30;99.90
29551;DHT22;16488;52.396;10.696;2023-11-21T11:12:53;7.40;99.90
29551;DHT22;16488;52.396;10.696;2023-11-21T11:15:19;7.40;99.90
29551;DHT22;16488;52.396;10.696;2023-11-21T11:17:45;7.40;99.90
29551;DHT22;16488;52.396;10.696;2023-11-21T11:20:12;7.40;99.90
29551;DHT22;16488;52.396;10.696;2023-11-21T11:22:42;7.40;99.90
29551;DHT22;16488;52.396;10.696;2023-11-21T11:32:41;7.70;99.90
